sensor_id;sensor_type;location;lat;lon;timestamp;pressure;altitude;pressure_sealevel;temperature
68911;BMP180;55953;51.650;-0.522;2024-03-02T00:00:50;98256.80;;;3.22
68911;BMP180;55953;51.650;-0.522;2024-03-02T00:03:39;98259.20;;;3.30
68911;BMP180;55953;51.650;-0.522;2024-03-02T00:06:08;98252.80;;;3.22
68911;BMP180;55953;51.650;-0.522;2024-03-02T00:08:37;98247.60;;;3.28
68911;BMP180;55953;51.650;-0.522;2024-03-02T00:11:05;98234.00;;;3.20
68911;BMP180;55953;51.650;-0.522;2024-03-02T00:13:33;98236.40;;;3.22
68911;BMP180;55953;51.650;-0.522;2024-03-02T00:16:03;98237.40;;;3.20
68911;BMP180;55953;51.650;-0.522;2024-03-02T00:18:35;98241.80;;;3.26
68911;BMP180;55953;51.650;-0.522;2024-03-02T00:21:06;98244.00;;;3.30
68911;BMP180;55953;51.650;-0.522;2024-03-02T00:23:37;98249.80;;;3.30
68911;BMP180;55953;51.650;-0.522;2024-03-02T00:26:06;98258.60;;;3.40
68911;BMP180;55953;51.650;-0.522;2024-03-02T00:28:36;98258.60;;;3.42
68911;BMP180;55953;51.650;-0.522;2024-03-02T00:31:11;98260.00;;;3.52
68911;BMP180;55953;51.650;-0.522;2024-03-02T00:33:48;98258.60;;;3.70
68911;BMP180;55953;51.650;-0.522;2024-03-02T00:36:22;98255.20;;;3.70
68911;BMP180;55953;51.650;-0.522;2024-03-02T00:38:54;98255.80;;;3.80
68911;BMP180;55953;51.650;-0.522;2024-03-02T00:41:27;98251.00;;;3.90
68911;BMP180;55953;51.650;-0.522;2024-03-02T00:44:06;98252.80;;;3.92
68911;BMP180;55953;51.650;-0.522;2024-03-02T00:46:37;98256.60;;;4.04
68911;BMP180;55953;51.650;-0.522;2024-03-02T00:49:17;98272.00;;;4.16
68911;BMP180;55953;51.650;-0.522;2024-03-02T00:51:50;98267.20;;;4.20
68911;BMP180;55953;51.650;-0.522;2024-03-02T00:54:25;98268.00;;;4.30
68911;BMP180;55953;51.650;-0.522;2024-03-02T00:56:54;98273.00;;;4.40
68911;BMP180;55953;51.650;-0.522;2024-03-02T00:59:25;98277.00;;;4.40
68911;BMP180;55953;51.650;-0.522;2024-03-02T01:01:53;98258.00;;;4.30
68911;BMP180;55953;51.650;-0.522;2024-03-02T01:04:21;98252.60;;;4.30
68911;BMP180;55953;51.650;-0.522;2024-03-02T01:06:50;98237.80;;;4.30
68911;BMP180;55953;51.650;-0.522;2024-03-02T01:09:18;98228.00;;;4.32
68911;BMP180;55953;51.650;-0.522;2024-03-02T01:11:46;98228.20;;;4.30
68911;BMP180;55953;51.650;-0.522;2024-03-02T01:14:14;98215.40;;;4.36
68911;BMP180;55953;51.650;-0.522;2024-03-02T01:16:42;98221.60;;;4.32
68911;BMP180;55953;51.650;-0.522;2024-03-02T01:19:10;98220.00;;;4.30
68911;BMP180;55953;51.650;-0.522;2024-03-02T01:21:38;98217.00;;;4.30
68911;BMP180;55953;51.650;-0.522;2024-03-02T01:24:06;98210.20;;;4.30
68911;BMP180;55953;51.650;-0.522;2024-03-02T01:26:34;98219.00;;;4.28
68911;BMP180;55953;51.650;-0.522;2024-03-02T01:29:02;98217.80;;;4.20
68911;BMP180;55953;51.650;-0.522;2024-03-02T01:31:30;98214.60;;;4.20
68911;BMP180;55953;51.650;-0.522;2024-03-02T01:33:58;98216.40;;;4.26
68911;BMP180;55953;51.650;-0.522;2024-03-02T01:36:26;98214.60;;;4.30
68911;BMP180;55953;51.650;-0.522;2024-03-02T01:38:54;98224.20;;;4.30
68911;BMP180;55953;51.650;-0.522;2024-03-02T01:41:22;98231.00;;;4.40
68911;BMP180;55953;51.650;-0.522;2024-03-02T01:43:49;98235.20;;;4.40
68911;BMP180;55953;51.650;-0.522;2024-03-02T01:46:17;98232.20;;;4.42
68911;BMP180;55953;51.650;-0.522;2024-03-02T01:48:45;98226.80;;;4.44
68911;BMP180;55953;51.650;-0.522;2024-03-02T01:51:13;98218.40;;;4.42
68911;BMP180;55953;51.650;-0.522;2024-03-02T01:53:41;98227.00;;;4.50
68911;BMP180;55953;51.650;-0.522;2024-03-02T01:56:09;98214.60;;;4.50
68911;BMP180;55953;51.650;-0.522;2024-03-02T01:58:37;98218.00;;;4.50
68911;BMP180;55953;51.650;-0.522;2024-03-02T02:01:06;98212.60;;;4.40
68911;BMP180;55953;51.650;-0.522;2024-03-02T02:03:34;98212.80;;;4.40
68911;BMP180;55953;51.650;-0.522;2024-03-02T02:06:02;98205.20;;;4.40
68911;BMP180;55953;51.650;-0.522;2024-03-02T02:08:30;98206.60;;;4.42
68911;BMP180;55953;51.650;-0.522;2024-03-02T02:10:59;98204.40;;;4.44
68911;BMP180;55953;51.650;-0.522;2024-03-02T02:13:27;98208.20;;;4.44
68911;BMP180;55953;51.650;-0.522;2024-03-02T02:15:55;98206.60;;;4.42
68911;BMP180;55953;51.650;-0.522;2024-03-02T02:18:23;98204.60;;;4.48
68911;BMP180;55953;51.650;-0.522;2024-03-02T02:20:50;98205.20;;;4.48
68911;BMP180;55953;51.650;-0.522;2024-03-02T02:23:18;98202.00;;;4.50
68911;BMP180;55953;51.650;-0.522;2024-03-02T02:25:47;98205.00;;;4.50
68911;BMP180;55953;51.650;-0.522;2024-03-02T02:28:15;98200.60;;;4.50
68911;BMP180;55953;51.650;-0.522;2024-03-02T02:30:43;98201.60;;;4.54
68911;BMP180;55953;51.650;-0.522;2024-03-02T02:33:11;98194.20;;;4.60
68911;BMP180;55953;51.650;-0.522;2024-03-02T02:35:39;98191.80;;;4.60
68911;BMP180;55953;51.650;-0.522;2024-03-02T02:38:07;98184.60;;;4.56
68911;BMP180;55953;51.650;-0.522;2024-03-02T02:40:35;98182.60;;;4.58
68911;BMP180;55953;51.650;-0.522;2024-03-02T02:43:03;98173.00;;;4.50
68911;BMP180;55953;51.650;-0.522;2024-03-02T02:45:31;98165.40;;;4.50
68911;BMP180;55953;51.650;-0.522;2024-03-02T02:47:59;98164.40;;;4.52
68911;BMP180;55953;51.650;-0.522;2024-03-02T02:50:29;98158.40;;;4.56
68911;BMP180;55953;51.650;-0.522;2024-03-02T02:52:56;98159.60;;;4.56
68911;BMP180;55953;51.650;-0.522;2024-03-02T02:55:24;98161.20;;;4.60
68911;BMP180;55953;51.650;-0.522;2024-03-02T02:57:52;98163.60;;;4.60
68911;BMP180;55953;51.650;-0.522;2024-03-02T03:00:21;98161.00;;;4.60
68911;BMP180;55953;51.650;-0.522;2024-03-02T03:02:50;98161.00;;;4.70
68911;BMP180;55953;51.650;-0.522;2024-03-02T03:05:19;98157.40;;;4.70
68911;BMP180;55953;51.650;-0.522;2024-03-02T03:07:47;98157.00;;;4.70
68911;BMP180;55953;51.650;-0.522;2024-03-02T03:10:18;98153.60;;;4.70
68911;BMP180;55953;51.650;-0.522;2024-03-02T03:12:46;98155.60;;;4.70
68911;BMP180;55953;51.650;-0.522;2024-03-02T03:15:15;98149.80;;;4.80
68911;BMP180;55953;51.650;-0.522;2024-03-02T03:17:44;98147.80;;;4.80
68911;BMP180;55953;51.650;-0.522;2024-03-02T03:20:14;98149.80;;;4.80
68911;BMP180;55953;51.650;-0.522;2024-03-02T03:22:43;98145.20;;;4.80
68911;BMP180;55953;51.650;-0.522;2024-03-02T03:25:11;98136.60;;;4.80
68911;BMP180;55953;51.650;-0.522;2024-03-02T03:27:40;98127.40;;;4.80
68911;BMP180;55953;51.650;-0.522;2024-03-02T03:30:10;98124.80;;;4.80
68911;BMP180;55953;51.650;-0.522;2024-03-02T03:32:38;98129.80;;;4.80
68911;BMP180;55953;51.650;-0.522;2024-03-02T03:35:07;98120.60;;;4.80
68911;BMP180;55953;51.650;-0.522;2024-03-02T03:37:35;98119.00;;;4.78
68911;BMP180;55953;51.650;-0.522;2024-03-02T03:40:04;98113.80;;;4.70
68911;BMP180;55953;51.650;-0.522;2024-03-02T03:42:39;98096.60;;;4.70
68911;BMP180;55953;51.650;-0.522;2024-03-02T03:45:08;98099.00;;;4.70
68911;BMP180;55953;51.650;-0.522;2024-03-02T03:47:36;98090.60;;;4.68
68911;BMP180;55953;51.650;-0.522;2024-03-02T03:50:05;98090.20;;;4.70
68911;BMP180;55953;51.650;-0.522;2024-03-02T03:52:35;98090.00;;;4.60
68911;BMP180;55953;51.650;-0.522;2024-03-02T03:55:03;98089.40;;;4.50
68911;BMP180;55953;51.650;-0.522;2024-03-02T03:57:33;98093.20;;;4.50
68911;BMP180;55953;51.650;-0.522;2024-03-02T04:00:03;98090.00;;;4.42
68911;BMP180;55953;51.650;-0.522;2024-03-02T04:02:38;98087.80;;;4.50
68911;BMP180;55953;51.650;-0.522;2024-03-02T04:05:07;98087.80;;;4.50
68911;BMP180;55953;51.650;-0.522;2024-03-02T04:07:39;98090.60;;;4.50
68911;BMP180;55953;51.650;-0.522;2024-03-02T04:10:10;98089.40;;;4.56
68911;BMP180;55953;51.650;-0.522;2024-03-02T04:12:39;98076.40;;;4.66
68911;BMP180;55953;51.650;-0.522;2024-03-02T04:15:08;98074.40;;;4.70
68911;BMP180;55953;51.650;-0.522;2024-03-02T04:17:36;98074.40;;;4.70
68911;BMP180;55953;51.650;-0.522;2024-03-02T04:20:05;98068.60;;;4.78
68911;BMP180;55953;51.650;-0.522;2024-03-02T04:22:34;98068.40;;;4.80
68911;BMP180;55953;51.650;-0.522;2024-03-02T04:25:03;98061.80;;;4.80
68911;BMP180;55953;51.650;-0.522;2024-03-02T04:27:32;98066.20;;;4.90
68911;BMP180;55953;51.650;-0.522;2024-03-02T04:30:01;98058.60;;;4.90
68911;BMP180;55953;51.650;-0.522;2024-03-02T04:32:29;98049.40;;;5.00
68911;BMP180;55953;51.650;-0.522;2024-03-02T04:34:57;98052.60;;;5.02
68911;BMP180;55953;51.650;-0.522;2024-03-02T04:37:25;98053.00;;;5.10
68911;BMP180;55953;51.650;-0.522;2024-03-02T04:39:53;98051.20;;;5.20
68911;BMP180;55953;51.650;-0.522;2024-03-02T04:42:21;98052.20;;;5.20
68911;BMP180;55953;51.650;-0.522;2024-03-02T04:44:50;98042.80;;;5.20
68911;BMP180;55953;51.650;-0.522;2024-03-02T04:47:18;98046.60;;;5.20
68911;BMP180;55953;51.650;-0.522;2024-03-02T04:49:46;98048.20;;;5.20
68911;BMP180;55953;51.650;-0.522;2024-03-02T04:52:16;98042.20;;;5.20
68911;BMP180;55953;51.650;-0.522;2024-03-02T04:54:45;98053.80;;;5.18
68911;BMP180;55953;51.650;-0.522;2024-03-02T04:57:31;98049.00;;;5.20
68911;BMP180;55953;51.650;-0.522;2024-03-02T04:59:59;98045.20;;;5.20
68911;BMP180;55953;51.650;-0.522;2024-03-02T05:02:28;98052.40;;;5.30
68911;BMP180;55953;51.650;-0.522;2024-03-02T05:04:55;98044.80;;;5.30
68911;BMP180;55953;51.650;-0.522;2024-03-02T05:07:23;98037.00;;;5.30
68911;BMP180;55953;51.650;-0.522;2024-03-02T05:09:51;98039.40;;;5.40
68911;BMP180;55953;51.650;-0.522;2024-03-02T05:12:19;98033.00;;;5.40
68911;BMP180;55953;51.650;-0.522;2024-03-02T05:15:06;98034.60;;;5.40
68911;BMP180;55953;51.650;-0.522;2024-03-02T05:17:38;98034.20;;;5.40
68911;BMP180;55953;51.650;-0.522;2024-03-02T05:20:07;98032.60;;;5.40
68911;BMP180;55953;51.650;-0.522;2024-03-02T05:22:37;98029.40;;;5.46
68911;BMP180;55953;51.650;-0.522;2024-03-02T05:25:06;98030.40;;;5.50
68911;BMP180;55953;51.650;-0.522;2024-03-02T05:27:35;98027.20;;;5.40
68911;BMP180;55953;51.650;-0.522;2024-03-02T05:30:03;98028.20;;;5.42
68911;BMP180;55953;51.650;-0.522;2024-03-02T05:32:34;98029.40;;;5.46
68911;BMP180;55953;51.650;-0.522;2024-03-02T05:35:02;98023.60;;;5.50
68911;BMP180;55953;51.650;-0.522;2024-03-02T05:37:30;98020.60;;;5.50
68911;BMP180;55953;51.650;-0.522;2024-03-02T05:39:58;98019.40;;;5.50
68911;BMP180;55953;51.650;-0.522;2024-03-02T05:42:28;98016.40;;;5.50
68911;BMP180;55953;51.650;-0.522;2024-03-02T05:44:56;98012.40;;;5.50
68911;BMP180;55953;51.650;-0.522;2024-03-02T05:47:24;98011.20;;;5.60
68911;BMP180;55953;51.650;-0.522;2024-03-02T05:49:52;98011.40;;;5.58
68911;BMP180;55953;51.650;-0.522;2024-03-02T05:52:19;98008.80;;;5.52
68911;BMP180;55953;51.650;-0.522;2024-03-02T05:54:48;98004.80;;;5.50
68911;BMP180;55953;51.650;-0.522;2024-03-02T05:57:17;98004.60;;;5.50
68911;BMP180;55953;51.650;-0.522;2024-03-02T05:59:59;98003.40;;;5.50
68911;BMP180;55953;51.650;-0.522;2024-03-02T06:02:27;97999.20;;;5.50
68911;BMP180;55953;51.650;-0.522;2024-03-02T06:04:56;97995.60;;;5.50
68911;BMP180;55953;51.650;-0.522;2024-03-02T06:07:24;97993.60;;;5.50
68911;BMP180;55953;51.650;-0.522;2024-03-02T06:09:52;97999.80;;;5.50
68911;BMP180;55953;51.650;-0.522;2024-03-02T06:12:20;97993.20;;;5.50
68911;BMP180;55953;51.650;-0.522;2024-03-02T06:14:48;97993.80;;;5.50
68911;BMP180;55953;51.650;-0.522;2024-03-02T06:17:16;97998.80;;;5.58
68911;BMP180;55953;51.650;-0.522;2024-03-02T06:19:43;97999.00;;;5.60
68911;BMP180;55953;51.650;-0.522;2024-03-02T06:22:11;98017.40;;;5.60
68911;BMP180;55953;51.650;-0.522;2024-03-02T06:24:39;98000.80;;;5.60
68911;BMP180;55953;51.650;-0.522;2024-03-02T06:27:07;98017.60;;;5.58
68911;BMP180;55953;51.650;-0.522;2024-03-02T06:29:35;98003.80;;;5.58
68911;BMP180;55953;51.650;-0.522;2024-03-02T06:32:04;97998.60;;;5.56
68911;BMP180;55953;51.650;-0.522;2024-03-02T06:34:32;98008.40;;;5.52
68911;BMP180;55953;51.650;-0.522;2024-03-02T06:37:00;98003.00;;;5.50
68911;BMP180;55953;51.650;-0.522;2024-03-02T06:39:28;97997.60;;;5.50
68911;BMP180;55953;51.650;-0.522;2024-03-02T06:41:56;98001.40;;;5.48
68911;BMP180;55953;51.650;-0.522;2024-03-02T06:44:24;98000.80;;;5.50
68911;BMP180;55953;51.650;-0.522;2024-03-02T06:46:52;98004.00;;;5.50
68911;BMP180;55953;51.650;-0.522;2024-03-02T06:49:20;97998.40;;;5.50
68911;BMP180;55953;51.650;-0.522;2024-03-02T06:51:48;98002.00;;;5.50
68911;BMP180;55953;51.650;-0.522;2024-03-02T06:54:16;98001.80;;;5.54
68911;BMP180;55953;51.650;-0.522;2024-03-02T06:56:44;97997.20;;;5.60
68911;BMP180;55953;51.650;-0.522;2024-03-02T06:59:12;98010.20;;;5.60
68911;BMP180;55953;51.650;-0.522;2024-03-02T07:01:40;98013.00;;;5.60
68911;BMP180;55953;51.650;-0.522;2024-03-02T07:04:08;98012.60;;;5.60
68911;BMP180;55953;51.650;-0.522;2024-03-02T07:06:36;98026.80;;;5.60
68911;BMP180;55953;51.650;-0.522;2024-03-02T07:09:04;98029.80;;;5.60
68911;BMP180;55953;51.650;-0.522;2024-03-02T07:11:32;98028.60;;;5.60
68911;BMP180;55953;51.650;-0.522;2024-03-02T07:14:00;98031.60;;;5.60
68911;BMP180;55953;51.650;-0.522;2024-03-02T07:16:29;98027.00;;;5.60
68911;BMP180;55953;51.650;-0.522;2024-03-02T07:19:00;98025.80;;;5.60
68911;BMP180;55953;51.650;-0.522;2024-03-02T07:21:29;98019.80;;;5.60
68911;BMP180;55953;51.650;-0.522;2024-03-02T07:23:57;98023.00;;;5.64
68911;BMP180;55953;51.650;-0.522;2024-03-02T07:26:25;98027.60;;;5.62
68911;BMP180;55953;51.650;-0.522;2024-03-02T07:28:57;98029.80;;;5.60
68911;BMP180;55953;51.650;-0.522;2024-03-02T07:31:25;98035.20;;;5.60
68911;BMP180;55953;51.650;-0.522;2024-03-02T07:33:53;98034.80;;;5.60
68911;BMP180;55953;51.650;-0.522;2024-03-02T07:36:21;98036.40;;;5.60
68911;BMP180;55953;51.650;-0.522;2024-03-02T07:38:49;98048.20;;;5.60
68911;BMP180;55953;51.650;-0.522;2024-03-02T07:41:18;98045.20;;;5.58
68911;BMP180;55953;51.650;-0.522;2024-03-02T07:43:46;98052.40;;;5.50
68911;BMP180;55953;51.650;-0.522;2024-03-02T07:46:14;98039.80;;;5.50
68911;BMP180;55953;51.650;-0.522;2024-03-02T07:48:43;98039.20;;;5.50
68911;BMP180;55953;51.650;-0.522;2024-03-02T07:51:11;98032.40;;;5.50
68911;BMP180;55953;51.650;-0.522;2024-03-02T07:53:39;98035.00;;;5.50
68911;BMP180;55953;51.650;-0.522;2024-03-02T07:56:06;98039.40;;;5.52
68911;BMP180;55953;51.650;-0.522;2024-03-02T07:58:34;98039.40;;;5.50
68911;BMP180;55953;51.650;-0.522;2024-03-02T08:01:03;98046.40;;;5.56
68911;BMP180;55953;51.650;-0.522;2024-03-02T08:03:32;98053.20;;;5.54
68911;BMP180;55953;51.650;-0.522;2024-03-02T08:06:02;98047.40;;;5.52
68911;BMP180;55953;51.650;-0.522;2024-03-02T08:08:30;98042.80;;;5.60
68911;BMP180;55953;51.650;-0.522;2024-03-02T08:10:58;98047.00;;;5.60
68911;BMP180;55953;51.650;-0.522;2024-03-02T08:13:28;98048.80;;;5.60
68911;BMP180;55953;51.650;-0.522;2024-03-02T08:15:56;98061.60;;;5.60
68911;BMP180;55953;51.650;-0.522;2024-03-02T08:18:25;98067.20;;;5.60
68911;BMP180;55953;51.650;-0.522;2024-03-02T08:20:53;98062.60;;;5.60
68911;BMP180;55953;51.650;-0.522;2024-03-02T08:23:21;98065.20;;;5.60
68911;BMP180;55953;51.650;-0.522;2024-03-02T08:25:49;98068.80;;;5.60
68911;BMP180;55953;51.650;-0.522;2024-03-02T08:28:17;98079.40;;;5.60
68911;BMP180;55953;51.650;-0.522;2024-03-02T08:30:45;98078.60;;;5.60
68911;BMP180;55953;51.650;-0.522;2024-03-02T08:33:13;98085.20;;;5.60
68911;BMP180;55953;51.650;-0.522;2024-03-02T08:35:41;98092.40;;;5.60
68911;BMP180;55953;51.650;-0.522;2024-03-02T08:38:09;98088.00;;;5.60
68911;BMP180;55953;51.650;-0.522;2024-03-02T08:40:37;98092.00;;;5.60
68911;BMP180;55953;51.650;-0.522;2024-03-02T08:43:06;98099.60;;;5.60
68911;BMP180;55953;51.650;-0.522;2024-03-02T08:45:34;98097.60;;;5.56
68911;BMP180;55953;51.650;-0.522;2024-03-02T08:48:03;98095.60;;;5.50
68911;BMP180;55953;51.650;-0.522;2024-03-02T08:50:31;98099.80;;;5.44
68911;BMP180;55953;51.650;-0.522;2024-03-02T08:52:59;98101.80;;;5.40
68911;BMP180;55953;51.650;-0.522;2024-03-02T08:55:27;98105.00;;;5.42
68911;BMP180;55953;51.650;-0.522;2024-03-02T08:57:55;98112.60;;;5.50
68911;BMP180;55953;51.650;-0.522;2024-03-02T09:00:24;98114.20;;;5.50
68911;BMP180;55953;51.650;-0.522;2024-03-02T09:02:53;98116.80;;;5.40
68911;BMP180;55953;51.650;-0.522;2024-03-02T09:05:22;98117.00;;;5.40
68911;BMP180;55953;51.650;-0.522;2024-03-02T09:07:49;98121.00;;;5.30
68911;BMP180;55953;51.650;-0.522;2024-03-02T09:10:17;98132.40;;;5.32
68911;BMP180;55953;51.650;-0.522;2024-03-02T09:12:45;98126.80;;;5.30
68911;BMP180;55953;51.650;-0.522;2024-03-02T09:15:13;98122.40;;;5.30
68911;BMP180;55953;51.650;-0.522;2024-03-02T09:17:41;98123.20;;;5.30
68911;BMP180;55953;51.650;-0.522;2024-03-02T09:20:10;98124.40;;;5.30
68911;BMP180;55953;51.650;-0.522;2024-03-02T09:22:38;98124.20;;;5.30
68911;BMP180;55953;51.650;-0.522;2024-03-02T09:25:07;98133.40;;;5.30
68911;BMP180;55953;51.650;-0.522;2024-03-02T09:30:09;98136.40;;;5.34
68911;BMP180;55953;51.650;-0.522;2024-03-02T09:32:37;98141.20;;;5.40
68911;BMP180;55953;51.650;-0.522;2024-03-02T09:35:06;98144.40;;;5.50
68911;BMP180;55953;51.650;-0.522;2024-03-02T09:37:34;98147.00;;;5.50
68911;BMP180;55953;51.650;-0.522;2024-03-02T09:40:04;98147.80;;;5.40
68911;BMP180;55953;51.650;-0.522;2024-03-02T09:42:32;98143.20;;;5.40
68911;BMP180;55953;51.650;-0.522;2024-03-02T09:45:00;98146.00;;;5.42
68911;BMP180;55953;51.650;-0.522;2024-03-02T09:47:28;98153.20;;;5.50
68911;BMP180;55953;51.650;-0.522;2024-03-02T09:49:56;98145.80;;;5.56
68911;BMP180;55953;51.650;-0.522;2024-03-02T09:52:25;98145.20;;;5.60
68911;BMP180;55953;51.650;-0.522;2024-03-02T09:54:53;98150.00;;;5.70
68911;BMP180;55953;51.650;-0.522;2024-03-02T09:57:21;98144.40;;;5.80
68911;BMP180;55953;51.650;-0.522;2024-03-02T09:59:49;98153.20;;;5.82
68911;BMP180;55953;51.650;-0.522;2024-03-02T10:02:17;98149.60;;;5.90
68911;BMP180;55953;51.650;-0.522;2024-03-02T10:04:44;98148.40;;;5.90
68911;BMP180;55953;51.650;-0.522;2024-03-02T10:07:16;98150.60;;;5.90
68911;BMP180;55953;51.650;-0.522;2024-03-02T10:09:48;98153.80;;;5.90
68911;BMP180;55953;51.650;-0.522;2024-03-02T10:12:17;98161.60;;;6.00
68911;BMP180;55953;51.650;-0.522;2024-03-02T10:14:46;98158.40;;;6.00
68911;BMP180;55953;51.650;-0.522;2024-03-02T10:17:17;98161.80;;;6.10
68911;BMP180;55953;51.650;-0.522;2024-03-02T10:19:45;98165.80;;;6.10
68911;BMP180;55953;51.650;-0.522;2024-03-02T10:22:13;98163.00;;;6.18
68911;BMP180;55953;51.650;-0.522;2024-03-02T10:24:43;98159.40;;;6.20
68911;BMP180;55953;51.650;-0.522;2024-03-02T10:27:23;98158.80;;;6.20
68911;BMP180;55953;51.650;-0.522;2024-03-02T10:29:53;98157.40;;;6.24
68911;BMP180;55953;51.650;-0.522;2024-03-02T10:32:23;98162.00;;;6.50
68911;BMP180;55953;51.650;-0.522;2024-03-02T10:34:51;98169.60;;;6.60
68911;BMP180;55953;51.650;-0.522;2024-03-02T10:37:20;98173.80;;;6.60
68911;BMP180;55953;51.650;-0.522;2024-03-02T10:39:49;98177.00;;;6.60
68911;BMP180;55953;51.650;-0.522;2024-03-02T10:42:19;98184.00;;;6.50
68911;BMP180;55953;51.650;-0.522;2024-03-02T10:44:48;98187.40;;;6.50
68911;BMP180;55953;51.650;-0.522;2024-03-02T10:47:19;98184.60;;;6.38
68911;BMP180;55953;51.650;-0.522;2024-03-02T10:49:49;98196.20;;;6.24
68911;BMP180;55953;51.650;-0.522;2024-03-02T10:52:18;98198.80;;;6.18
68911;BMP180;55953;51.650;-0.522;2024-03-02T10:54:47;98202.40;;;6.10
68911;BMP180;55953;51.650;-0.522;2024-03-02T10:57:19;98209.80;;;6.10
68911;BMP180;55953;51.650;-0.522;2024-03-02T10:59:56;98208.20;;;6.00
68911;BMP180;55953;51.650;-0.522;2024-03-02T11:02:25;98201.40;;;6.00
68911;BMP180;55953;51.650;-0.522;2024-03-02T11:04:56;98201.00;;;6.00
68911;BMP180;55953;51.650;-0.522;2024-03-02T11:07:25;98192.60;;;6.00
68911;BMP180;55953;51.650;-0.522;2024-03-02T11:10:03;98200.80;;;6.10
68911;BMP180;55953;51.650;-0.522;2024-03-02T11:12:56;98199.80;;;6.30
68911;BMP180;55953;51.650;-0.522;2024-03-02T11:15:27;98204.80;;;6.48
68911;BMP180;55953;51.650;-0.522;2024-03-02T11:17:57;98209.60;;;6.70
68911;BMP180;55953;51.650;-0.522;2024-03-02T11:20:26;98211.00;;;6.86
68911;BMP180;55953;51.650;-0.522;2024-03-02T11:22:56;98219.80;;;7.00
68911;BMP180;55953;51.650;-0.522;2024-03-02T11:25:28;98219.40;;;7.10
68911;BMP180;55953;51.650;-0.522;2024-03-02T11:33:08;98213.20;;;7.14
68911;BMP180;55953;51.650;-0.522;2024-03-02T11:35:44;98215.00;;;7.20
68911;BMP180;55953;51.650;-0.522;2024-03-02T11:38:18;98226.20;;;7.30
68911;BMP180;55953;51.650;-0.522;2024-03-02T11:40:46;98224.40;;;7.40
68911;BMP180;55953;51.650;-0.522;2024-03-02T11:43:15;98220.60;;;7.40
68911;BMP180;55953;51.650;-0.522;2024-03-02T11:45:43;98226.20;;;7.40
68911;BMP180;55953;51.650;-0.522;2024-03-02T11:48:15;98226.20;;;7.50
68911;BMP180;55953;51.650;-0.522;2024-03-02T11:50:50;98223.60;;;7.50
68911;BMP180;55953;51.650;-0.522;2024-03-02T11:53:20;98215.40;;;7.50
68911;BMP180;55953;51.650;-0.522;2024-03-02T11:55:49;98218.80;;;7.70
68911;BMP180;55953;51.650;-0.522;2024-03-02T11:58:17;98222.20;;;7.88
68911;BMP180;55953;51.650;-0.522;2024-03-02T12:00:51;98218.40;;;8.00
68911;BMP180;55953;51.650;-0.522;2024-03-02T12:03:22;98219.20;;;8.00
68911;BMP180;55953;51.650;-0.522;2024-03-02T12:05:53;98223.60;;;8.00
68911;BMP180;55953;51.650;-0.522;2024-03-02T12:08:22;98226.80;;;7.80
68911;BMP180;55953;51.650;-0.522;2024-03-02T12:11:01;98227.40;;;7.70
68911;BMP180;55953;51.650;-0.522;2024-03-02T12:13:31;98225.60;;;7.62
68911;BMP180;55953;51.650;-0.522;2024-03-02T12:16:00;98231.20;;;7.60
68911;BMP180;55953;51.650;-0.522;2024-03-02T12:18:28;98235.00;;;7.60
68911;BMP180;55953;51.650;-0.522;2024-03-02T12:20:56;98236.80;;;7.50
68911;BMP180;55953;51.650;-0.522;2024-03-02T12:23:26;98238.00;;;7.48
68911;BMP180;55953;51.650;-0.522;2024-03-02T12:25:55;98238.00;;;7.50
68911;BMP180;55953;51.650;-0.522;2024-03-02T12:28:23;98232.00;;;7.56
68911;BMP180;55953;51.650;-0.522;2024-03-02T12:30:51;98231.80;;;7.74
68911;BMP180;55953;51.650;-0.522;2024-03-02T12:33:20;98227.60;;;7.90
68911;BMP180;55953;51.650;-0.522;2024-03-02T12:35:49;98227.20;;;7.90
68911;BMP180;55953;51.650;-0.522;2024-03-02T12:38:17;98228.20;;;8.00
68911;BMP180;55953;51.650;-0.522;2024-03-02T12:40:48;98228.80;;;8.00
68911;BMP180;55953;51.650;-0.522;2024-03-02T12:43:17;98228.40;;;8.18
68911;BMP180;55953;51.650;-0.522;2024-03-02T12:45:45;98238.20;;;8.30
68911;BMP180;55953;51.650;-0.522;2024-03-02T12:48:13;98241.00;;;8.30
68911;BMP180;55953;51.650;-0.522;2024-03-02T12:50:41;98237.00;;;8.30
68911;BMP180;55953;51.650;-0.522;2024-03-02T12:53:15;98237.60;;;8.40
68911;BMP180;55953;51.650;-0.522;2024-03-02T12:55:44;98236.00;;;8.58
68911;BMP180;55953;51.650;-0.522;2024-03-02T12:58:22;98236.00;;;8.70
68911;BMP180;55953;51.650;-0.522;2024-03-02T13:00:50;98242.20;;;8.70
68911;BMP180;55953;51.650;-0.522;2024-03-02T13:03:19;98245.00;;;8.78
68911;BMP180;55953;51.650;-0.522;2024-03-02T13:05:51;98245.60;;;8.80
68911;BMP180;55953;51.650;-0.522;2024-03-02T13:08:19;98244.60;;;8.80
68911;BMP180;55953;51.650;-0.522;2024-03-02T13:10:47;98244.80;;;8.70
68911;BMP180;55953;51.650;-0.522;2024-03-02T13:13:15;98246.80;;;8.70
68911;BMP180;55953;51.650;-0.522;2024-03-02T13:15:44;98250.20;;;8.60
68911;BMP180;55953;51.650;-0.522;2024-03-02T13:18:13;98255.20;;;8.60
68911;BMP180;55953;51.650;-0.522;2024-03-02T13:20:43;98251.20;;;8.68
68911;BMP180;55953;51.650;-0.522;2024-03-02T13:23:11;98249.40;;;8.70
68911;BMP180;55953;51.650;-0.522;2024-03-02T13:25:39;98248.20;;;8.80
68911;BMP180;55953;51.650;-0.522;2024-03-02T13:28:07;98246.80;;;8.90
68911;BMP180;55953;51.650;-0.522;2024-03-02T13:30:36;98243.40;;;8.90
68911;BMP180;55953;51.650;-0.522;2024-03-02T13:33:04;98244.60;;;8.90
68911;BMP180;55953;51.650;-0.522;2024-03-02T13:35:33;98248.80;;;9.00
68911;BMP180;55953;51.650;-0.522;2024-03-02T13:38:01;98251.20;;;9.00
68911;BMP180;55953;51.650;-0.522;2024-03-02T13:40:29;98254.20;;;9.00
68911;BMP180;55953;51.650;-0.522;2024-03-02T13:42:58;98257.00;;;8.90
68911;BMP180;55953;51.650;-0.522;2024-03-02T13:45:26;98254.40;;;8.70
68911;BMP180;55953;51.650;-0.522;2024-03-02T13:47:55;98254.40;;;8.70
68911;BMP180;55953;51.650;-0.522;2024-03-02T13:50:23;98256.60;;;8.70
68911;BMP180;55953;51.650;-0.522;2024-03-02T13:52:51;98256.20;;;8.94
68911;BMP180;55953;51.650;-0.522;2024-03-02T13:55:19;98254.20;;;9.10
68911;BMP180;55953;51.650;-0.522;2024-03-02T13:57:48;98254.40;;;9.00
68911;BMP180;55953;51.650;-0.522;2024-03-02T14:00:18;98256.40;;;8.86
68911;BMP180;55953;51.650;-0.522;2024-03-02T14:02:46;98251.40;;;8.80
68911;BMP180;55953;51.650;-0.522;2024-03-02T14:05:17;98254.00;;;8.80
68911;BMP180;55953;51.650;-0.522;2024-03-02T14:07:47;98255.20;;;8.80
68911;BMP180;55953;51.650;-0.522;2024-03-02T14:10:14;98253.20;;;8.80
68911;BMP180;55953;51.650;-0.522;2024-03-02T14:12:43;98248.40;;;8.84
68911;BMP180;55953;51.650;-0.522;2024-03-02T14:15:11;98249.80;;;8.90
68911;BMP180;55953;51.650;-0.522;2024-03-02T14:17:39;98252.80;;;8.90
68911;BMP180;55953;51.650;-0.522;2024-03-02T14:20:08;98255.40;;;8.80
68911;BMP180;55953;51.650;-0.522;2024-03-02T14:22:38;98258.80;;;8.80
68911;BMP180;55953;51.650;-0.522;2024-03-02T14:25:06;98262.20;;;8.80
68911;BMP180;55953;51.650;-0.522;2024-03-02T14:27:35;98259.00;;;8.80